createdAt,value
2019-01-09T00:01:31.952Z,3.32
2019-01-09T00:04:00.537Z,3.30
2019-01-09T00:06:29.024Z,3.29
2019-01-09T00:08:57.458Z,3.29
2019-01-09T00:11:25.913Z,3.30
2019-01-09T00:13:54.356Z,3.30
2019-01-09T00:16:22.817Z,3.31
2019-01-09T00:18:51.369Z,3.33
2019-01-09T00:21:19.828Z,3.33
2019-01-09T00:23:48.259Z,3.34
2019-01-09T00:26:16.720Z,3.34
2019-01-09T00:28:45.228Z,3.34
2019-01-09T00:31:13.684Z,3.34
2019-01-09T00:33:42.118Z,3.33
2019-01-09T00:36:10.573Z,3.32
2019-01-09T00:38:40.542Z,3.32
2019-01-09T00:41:09.318Z,3.31
2019-01-09T00:43:37.884Z,3.29
2019-01-09T00:46:06.357Z,3.27
2019-01-09T00:48:34.786Z,3.28
2019-01-09T00:51:03.248Z,3.27
2019-01-09T00:53:31.752Z,3.27
2019-01-09T00:56:00.217Z,3.24
2019-01-09T00:58:28.646Z,3.24
2019-01-09T01:00:57.107Z,3.18
2019-01-09T01:03:43.974Z,3.17
2019-01-09T01:06:39.736Z,3.17
2019-01-09T01:09:30.936Z,3.15
2019-01-09T01:12:27.096Z,3.13
2019-01-09T01:15:19.986Z,3.09
2019-01-09T01:18:14.150Z,3.05
2019-01-09T01:20:45.760Z,3.02
2019-01-09T01:23:20.316Z,3.01
2019-01-09T01:25:57.632Z,3.00
2019-01-09T01:28:53.455Z,2.99
2019-01-09T01:31:30.833Z,3.00
2019-01-09T01:34:23.636Z,2.97
2019-01-09T01:37:13.169Z,2.96
2019-01-09T01:39:50.878Z,2.96
2019-01-09T01:42:31.477Z,2.98
2019-01-09T01:45:22.432Z,2.99
2019-01-09T01:47:59.640Z,3.00
2019-01-09T01:50:40.004Z,3.00
2019-01-09T01:53:20.823Z,3.01
2019-01-09T01:56:07.233Z,3.00
2019-01-09T01:58:53.999Z,3.00
2019-01-09T02:01:34.123Z,2.99
2019-01-09T02:04:20.820Z,3.02
2019-01-09T02:07:13.510Z,3.02
2019-01-09T02:09:54.184Z,3.03
2019-01-09T02:12:28.540Z,3.04
2019-01-09T02:15:18.245Z,3.04
2019-01-09T02:17:52.650Z,3.02
2019-01-09T02:20:42.558Z,3.06
2019-01-09T02:23:17.301Z,3.04
2019-01-09T02:26:09.967Z,3.07
2019-01-09T02:28:50.564Z,3.09
2019-01-09T02:31:24.978Z,3.10
2019-01-09T02:33:53.438Z,3.10
2019-01-09T02:36:21.876Z,3.05
2019-01-09T02:38:50.345Z,3.05
2019-01-09T02:41:18.779Z,3.09
2019-01-09T02:43:47.267Z,3.09
2019-01-09T02:46:15.706Z,3.09
2019-01-09T02:48:44.222Z,3.08
2019-01-09T02:51:12.655Z,3.08
2019-01-09T02:53:41.121Z,3.06
2019-01-09T02:56:09.563Z,3.04
2019-01-09T02:58:38.044Z,3.02
2019-01-09T03:01:06.486Z,3.02
2019-01-09T03:03:34.925Z,3.02
2019-01-09T03:06:03.389Z,3.03
2019-01-09T03:08:31.834Z,3.02
2019-01-09T03:11:00.360Z,3.03
2019-01-09T03:13:28.865Z,3.02
2019-01-09T03:15:57.342Z,3.01
2019-01-09T03:18:25.783Z,3.00
2019-01-09T03:20:54.243Z,2.99
2019-01-09T03:23:22.673Z,3.00
2019-01-09T03:25:51.142Z,3.00
2019-01-09T03:28:19.581Z,2.99
2019-01-09T03:30:48.045Z,3.01
2019-01-09T03:33:16.485Z,3.00
2019-01-09T03:35:44.941Z,3.02
2019-01-09T03:38:13.380Z,3.01
2019-01-09T03:40:41.844Z,3.03
2019-01-09T03:43:10.278Z,2.98
2019-01-09T03:45:38.738Z,3.01
2019-01-09T03:48:07.248Z,3.00
2019-01-09T03:50:35.702Z,2.79
2019-01-09T03:53:04.139Z,2.96
2019-01-09T03:55:32.615Z,2.96
2019-01-09T03:58:01.063Z,2.96
2019-01-09T04:00:29.504Z,2.96
2019-01-09T04:02:57.961Z,2.98
2019-01-09T04:05:26.418Z,2.92
2019-01-09T04:07:54.876Z,2.93
2019-01-09T04:10:23.316Z,2.92
2019-01-09T04:12:51.776Z,2.92
2019-01-09T04:15:20.490Z,2.92
2019-01-09T04:17:48.955Z,2.89
2019-01-09T04:20:17.391Z,2.88
2019-01-09T04:22:45.860Z,2.88
2019-01-09T04:25:15.944Z,2.89
2019-01-09T04:27:44.401Z,2.89
2019-01-09T04:30:12.845Z,2.89
2019-01-09T04:32:41.316Z,2.89
2019-01-09T04:35:09.745Z,2.88
2019-01-09T04:37:38.207Z,2.89
2019-01-09T04:40:06.730Z,2.90
2019-01-09T04:42:35.188Z,2.90
2019-01-09T04:45:03.638Z,2.92
2019-01-09T04:47:32.099Z,2.90
2019-01-09T04:50:00.563Z,2.90
2019-01-09T04:52:28.996Z,2.87
2019-01-09T04:54:57.536Z,2.85
2019-01-09T04:57:25.980Z,2.83
2019-01-09T04:59:54.426Z,2.77
2019-01-09T05:02:22.882Z,2.74
2019-01-09T05:04:51.325Z,2.72
2019-01-09T05:07:19.784Z,2.70
2019-01-09T05:09:48.220Z,2.70
2019-01-09T05:12:16.686Z,2.70
2019-01-09T05:14:45.117Z,2.69
2019-01-09T05:17:13.587Z,2.70
2019-01-09T05:19:42.026Z,2.69
2019-01-09T05:22:10.625Z,2.70
2019-01-09T05:24:39.060Z,2.69
2019-01-09T05:27:07.551Z,2.66
2019-01-09T05:29:35.965Z,2.64
2019-01-09T05:32:04.414Z,2.61
2019-01-09T05:34:32.877Z,2.59
2019-01-09T05:37:09.215Z,2.59
2019-01-09T05:39:39.400Z,2.58
2019-01-09T05:42:01.653Z,2.60
2019-01-09T05:44:30.118Z,2.62
2019-01-09T05:46:58.558Z,2.60
2019-01-09T05:49:27.025Z,2.60
2019-01-09T05:51:55.467Z,2.58
2019-01-09T05:54:25.330Z,2.57
2019-01-09T05:56:53.760Z,2.58
2019-01-09T05:59:22.264Z,2.58
2019-01-09T06:01:50.704Z,2.40
2019-01-09T06:04:19.168Z,2.57
2019-01-09T06:06:47.677Z,2.60
2019-01-09T06:09:16.144Z,2.60
2019-01-09T06:11:44.575Z,2.59
2019-01-09T06:14:13.042Z,2.58
2019-01-09T06:16:41.498Z,2.57
2019-01-09T06:19:09.969Z,2.54
2019-01-09T06:21:38.406Z,2.51
2019-01-09T06:24:06.877Z,2.45
2019-01-09T06:26:35.309Z,2.38
2019-01-09T06:29:03.766Z,2.31
2019-01-09T06:31:32.203Z,2.28
2019-01-09T06:34:00.704Z,2.23
2019-01-09T06:36:29.154Z,2.17
2019-01-09T06:38:57.617Z,2.12
2019-01-09T06:41:26.051Z,2.09
2019-01-09T06:43:54.517Z,2.08
2019-01-09T06:46:22.950Z,2.05
2019-01-09T06:48:51.412Z,2.01
2019-01-09T06:51:19.861Z,1.98
2019-01-09T06:53:48.317Z,1.95
2019-01-09T06:56:16.777Z,1.95
2019-01-09T06:58:45.286Z,1.95
2019-01-09T07:01:13.729Z,1.98
2019-01-09T07:03:42.195Z,1.99
2019-01-09T07:06:10.639Z,2.00
2019-01-09T07:08:39.100Z,2.01
2019-01-09T07:11:07.541Z,2.04
2019-01-09T07:13:36.004Z,2.03
2019-01-09T07:16:04.446Z,2.05
2019-01-09T07:18:32.906Z,2.07
2019-01-09T07:21:01.344Z,2.10
2019-01-09T07:23:29.786Z,2.08
2019-01-09T07:25:58.242Z,2.11
2019-01-09T07:28:26.676Z,2.12
2019-01-09T07:30:55.140Z,2.13
2019-01-09T07:33:23.569Z,2.13
2019-01-09T07:35:52.037Z,2.16
2019-01-09T07:38:20.482Z,2.17
2019-01-09T07:40:48.951Z,2.18
2019-01-09T07:43:17.388Z,2.18
2019-01-09T07:45:45.858Z,2.19
2019-01-09T07:48:14.292Z,2.18
2019-01-09T07:50:42.757Z,2.19
2019-01-09T07:53:11.267Z,2.20
2019-01-09T07:55:39.728Z,2.22
2019-01-09T07:58:08.240Z,2.25
2019-01-09T08:00:36.704Z,2.26
2019-01-09T08:03:05.146Z,2.26
2019-01-09T08:05:33.609Z,2.29
2019-01-09T08:08:02.049Z,2.30
2019-01-09T08:10:30.512Z,2.31
2019-01-09T08:12:58.953Z,2.31
2019-01-09T08:15:27.418Z,2.33
2019-01-09T08:17:55.856Z,2.34
2019-01-09T08:20:24.324Z,2.34
2019-01-09T08:22:52.758Z,2.36
2019-01-09T08:25:21.215Z,2.38
2019-01-09T08:27:49.651Z,2.38
2019-01-09T08:30:18.115Z,2.37
2019-01-09T08:32:46.555Z,2.40
2019-01-09T08:35:15.026Z,2.41
2019-01-09T08:37:45.302Z,2.41
2019-01-09T08:40:13.767Z,2.43
2019-01-09T08:42:42.208Z,2.44
2019-01-09T08:45:10.666Z,2.45
2019-01-09T08:47:39.113Z,2.44
2019-01-09T08:50:08.714Z,2.44
2019-01-09T08:52:37.155Z,2.46
2019-01-09T08:55:07.763Z,2.47
2019-01-09T08:57:36.200Z,2.49
2019-01-09T09:00:07.578Z,2.50
2019-01-09T09:02:36.023Z,2.51
2019-01-09T09:05:05.126Z,2.53
2019-01-09T09:07:33.742Z,2.51
2019-01-09T09:10:02.208Z,2.54
2019-01-09T09:12:30.689Z,2.55
2019-01-09T09:14:59.146Z,2.55
2019-01-09T09:17:27.583Z,2.54
2019-01-09T09:19:56.027Z,2.53
2019-01-09T09:22:24.492Z,2.52
2019-01-09T09:24:52.932Z,2.51
2019-01-09T09:27:21.393Z,2.49
2019-01-09T09:29:49.906Z,2.51
2019-01-09T09:32:18.377Z,2.50
2019-01-09T09:34:46.922Z,2.49
2019-01-09T09:37:15.390Z,2.49
2019-01-09T09:39:43.829Z,2.48
2019-01-09T09:42:12.292Z,2.48
2019-01-09T09:44:40.740Z,2.48
2019-01-09T09:47:09.204Z,2.50
2019-01-09T09:49:37.644Z,2.50
2019-01-09T09:52:06.113Z,2.53
2019-01-09T09:54:34.542Z,2.56
2019-01-09T09:57:03.009Z,2.57
2019-01-09T09:59:31.473Z,2.61
2019-01-09T10:01:59.908Z,2.65
2019-01-09T10:04:28.352Z,2.69
2019-01-09T10:06:56.817Z,2.72
2019-01-09T10:09:25.256Z,2.78
2019-01-09T10:11:53.720Z,2.83
2019-01-09T10:14:22.245Z,2.87
2019-01-09T10:16:50.992Z,2.92
2019-01-09T10:19:19.434Z,2.95
2019-01-09T10:21:47.906Z,2.96
2019-01-09T10:24:16.345Z,2.96
2019-01-09T10:26:44.808Z,3.04
2019-01-09T10:29:13.249Z,3.06
2019-01-09T10:31:41.707Z,3.06
2019-01-09T10:34:10.217Z,3.07
2019-01-09T10:36:38.673Z,3.07
2019-01-09T10:39:08.549Z,3.09
2019-01-09T10:41:37.018Z,3.12
2019-01-09T10:44:05.449Z,3.11
2019-01-09T10:46:33.917Z,3.12
2019-01-09T10:49:02.357Z,3.11
2019-01-09T10:51:30.818Z,3.07
2019-01-09T10:54:00.648Z,3.10
2019-01-09T10:56:29.304Z,3.09
2019-01-09T10:58:57.745Z,3.09
2019-01-09T11:01:26.208Z,3.09
2019-01-09T11:03:54.649Z,3.08
2019-01-09T11:06:23.184Z,3.09
2019-01-09T11:08:51.625Z,3.11
2019-01-09T11:11:20.110Z,3.12
2019-01-09T11:13:48.548Z,3.14
2019-01-09T11:16:16.989Z,3.14
2019-01-09T11:18:45.452Z,3.15
2019-01-09T11:21:13.892Z,3.19
2019-01-09T11:23:42.357Z,3.19
2019-01-09T11:26:10.797Z,3.20
2019-01-09T11:28:39.261Z,3.20
2019-01-09T11:31:07.694Z,3.18
2019-01-09T11:33:36.156Z,3.18
2019-01-09T11:36:05.167Z,3.17
2019-01-09T11:38:33.633Z,3.16
2019-01-09T11:41:02.070Z,3.15
2019-01-09T11:43:30.531Z,3.14
2019-01-09T11:45:59.042Z,3.14
2019-01-09T11:48:27.506Z,3.15
2019-01-09T11:50:55.945Z,3.16
2019-01-09T11:53:24.479Z,3.17
2019-01-09T11:55:52.916Z,3.19
2019-01-09T11:58:24.191Z,3.21
2019-01-09T12:00:52.630Z,3.22
2019-01-09T12:03:21.079Z,3.22
2019-01-09T12:05:49.520Z,3.22
2019-01-09T12:08:17.986Z,3.22
2019-01-09T12:10:46.466Z,3.22
2019-01-09T12:13:14.969Z,3.20
2019-01-09T12:15:43.403Z,3.19
2019-01-09T12:18:11.866Z,3.20
2019-01-09T12:20:40.300Z,3.20
2019-01-09T12:23:08.761Z,3.20
2019-01-09T12:25:37.196Z,3.20
2019-01-09T12:28:05.902Z,3.23
2019-01-09T12:30:34.301Z,3.20
2019-01-09T12:33:02.776Z,3.20
2019-01-09T12:35:31.216Z,3.16
2019-01-09T12:37:59.684Z,3.16
2019-01-09T12:40:30.156Z,3.17
2019-01-09T12:42:58.312Z,3.17
2019-01-09T12:45:26.759Z,3.17
2019-01-09T12:47:55.214Z,3.14
2019-01-09T12:50:24.892Z,3.13
2019-01-09T12:52:53.429Z,3.13
2019-01-09T12:55:21.864Z,3.13
2019-01-09T12:57:50.328Z,3.11
2019-01-09T13:00:24.127Z,3.12
2019-01-09T13:02:52.583Z,3.12
2019-01-09T13:05:21.016Z,3.13
2019-01-09T13:07:49.451Z,3.13
2019-01-09T13:10:17.919Z,3.11
2019-01-09T13:12:46.421Z,3.12
2019-01-09T13:15:14.960Z,3.11
2019-01-09T13:17:43.398Z,3.09
2019-01-09T13:20:16.468Z,3.09
2019-01-09T13:22:44.901Z,3.09
2019-01-09T13:25:14.671Z,3.08
2019-01-09T13:27:43.546Z,3.06
2019-01-09T13:30:15.188Z,3.00
2019-01-09T13:32:43.626Z,2.97
2019-01-09T13:35:12.095Z,2.97
2019-01-09T13:37:40.536Z,2.94
2019-01-09T13:40:15.094Z,2.92
2019-01-09T13:42:43.610Z,2.90
2019-01-09T13:45:14.804Z,2.87
2019-01-09T13:47:43.337Z,2.83
2019-01-09T13:50:13.940Z,2.79
2019-01-09T13:52:42.588Z,2.75
2019-01-09T13:55:12.953Z,2.75
2019-01-09T13:57:41.394Z,2.72
2019-01-09T14:00:15.247Z,2.70
2019-01-09T14:02:43.685Z,2.66
2019-01-09T14:05:12.149Z,2.64
2019-01-09T14:07:40.584Z,2.60
2019-01-09T14:10:15.156Z,2.58
2019-01-09T14:12:43.596Z,2.57
2019-01-09T14:15:17.646Z,2.55
2019-01-09T14:17:46.216Z,2.54
2019-01-09T14:20:14.816Z,2.53
2019-01-09T14:22:43.252Z,2.52
2019-01-09T14:25:13.651Z,2.50
2019-01-09T14:27:42.088Z,2.48
2019-01-09T14:30:13.725Z,2.48
2019-01-09T14:32:42.158Z,2.47
2019-01-09T14:35:10.693Z,2.45
2019-01-09T14:37:39.196Z,2.43
2019-01-09T14:40:10.871Z,2.41
2019-01-09T14:42:39.309Z,2.38
2019-01-09T14:45:10.013Z,2.37
2019-01-09T14:47:38.452Z,2.35
2019-01-09T14:50:10.355Z,2.32
2019-01-09T14:52:38.765Z,2.29
2019-01-09T14:55:07.963Z,2.27
2019-01-09T14:57:36.472Z,2.26
2019-01-09T15:00:13.823Z,2.23
2019-01-09T15:02:42.257Z,2.22
2019-01-09T15:05:10.892Z,2.20
2019-01-09T15:07:39.401Z,2.18
2019-01-09T15:10:13.821Z,2.16
2019-01-09T15:12:42.535Z,2.14
2019-01-09T15:15:14.037Z,2.12
2019-01-09T15:17:42.471Z,2.08
2019-01-09T15:20:16.415Z,2.06
2019-01-09T15:22:44.975Z,2.02
2019-01-09T15:25:14.862Z,1.99
2019-01-09T15:27:43.295Z,1.98
2019-01-09T15:30:23.281Z,1.93
2019-01-09T15:32:51.881Z,1.92
2019-01-09T15:35:20.340Z,1.89
2019-01-09T15:37:48.769Z,1.90
2019-01-09T15:40:19.645Z,1.89
2019-01-09T15:42:49.194Z,1.89
2019-01-09T15:45:17.654Z,1.90
2019-01-09T15:47:46.095Z,1.90
2019-01-09T15:50:17.002Z,1.91
2019-01-09T15:52:45.757Z,1.93
2019-01-09T15:55:16.201Z,1.94
2019-01-09T15:57:45.780Z,1.98
2019-01-09T16:00:26.408Z,2.00
2019-01-09T16:02:54.984Z,2.04
2019-01-09T16:05:23.450Z,2.07
2019-01-09T16:07:51.890Z,2.09
2019-01-09T16:10:23.530Z,2.13
2019-01-09T16:12:51.969Z,2.16
2019-01-09T16:15:20.598Z,2.19
2019-01-09T16:17:49.235Z,2.24
2019-01-09T16:20:22.337Z,2.27
2019-01-09T16:22:50.847Z,2.34
2019-01-09T16:25:19.473Z,2.38
2019-01-09T16:27:47.907Z,2.44
2019-01-09T16:30:23.307Z,2.49
2019-01-09T16:32:51.744Z,2.54
2019-01-09T16:35:20.773Z,2.60
2019-01-09T16:37:49.214Z,2.76
2019-01-09T16:40:23.266Z,2.76
2019-01-09T16:42:48.011Z,2.84
2019-01-09T16:45:16.456Z,2.91
2019-01-09T16:47:44.917Z,2.97
2019-01-09T16:50:21.337Z,3.04
2019-01-09T16:52:49.799Z,3.10
2019-01-09T16:55:18.243Z,3.15
2019-01-09T16:57:46.880Z,3.22
2019-01-09T17:00:27.003Z,3.22
2019-01-09T17:02:55.536Z,3.24
2019-01-09T17:05:24.039Z,3.26
2019-01-09T17:07:53.047Z,3.30
2019-01-09T17:10:21.566Z,3.30
2019-01-09T17:12:50.029Z,3.35
2019-01-09T17:15:19.111Z,3.35
2019-01-09T17:17:48.012Z,3.37
2019-01-09T17:20:24.911Z,3.38
2019-01-09T17:22:53.543Z,3.37
2019-01-09T17:25:21.987Z,3.38
2019-01-09T17:27:50.503Z,3.38
2019-01-09T17:30:31.099Z,3.38
2019-01-09T17:32:59.651Z,3.35
2019-01-09T17:35:28.102Z,3.34
2019-01-09T17:37:56.559Z,3.34
2019-01-09T17:40:25.270Z,3.35
2019-01-09T17:42:53.898Z,3.34
2019-01-09T17:45:22.411Z,3.35
2019-01-09T17:47:50.950Z,3.32
2019-01-09T17:50:31.025Z,3.40
2019-01-09T17:52:59.484Z,3.40
2019-01-09T17:55:28.263Z,3.43
2019-01-09T17:57:56.728Z,3.43
2019-01-09T18:00:39.723Z,3.40
2019-01-09T18:03:08.305Z,3.35
2019-01-09T18:05:36.737Z,3.35
2019-01-09T18:08:10.459Z,3.37
2019-01-09T18:10:35.846Z,3.36
2019-01-09T18:13:06.598Z,3.36
2019-01-09T18:15:35.108Z,3.36
2019-01-09T18:18:03.573Z,3.29
2019-01-09T18:20:32.005Z,3.26
2019-01-09T18:23:00.472Z,3.27
2019-01-09T18:25:30.241Z,3.25
2019-01-09T18:27:58.772Z,3.23
2019-01-09T18:30:30.410Z,3.22
2019-01-09T18:33:04.668Z,3.22
2019-01-09T18:35:39.114Z,3.21
2019-01-09T18:38:15.828Z,3.23
2019-01-09T18:41:00.406Z,3.22
2019-01-09T18:43:47.431Z,3.23
2019-01-09T18:46:27.861Z,3.25
2019-01-09T18:49:29.985Z,3.20
2019-01-09T18:52:04.269Z,3.20
2019-01-09T18:54:32.735Z,3.22
2019-01-09T18:57:01.165Z,3.21
2019-01-09T18:59:29.627Z,3.17
2019-01-09T19:01:58.238Z,3.18
2019-01-09T19:04:26.695Z,3.20
2019-01-09T19:06:55.186Z,3.16
2019-01-09T19:09:23.648Z,3.19
2019-01-09T19:11:52.093Z,3.19
2019-01-09T19:14:20.560Z,3.17
2019-01-09T19:16:48.994Z,3.22
2019-01-09T19:19:17.456Z,3.22
2019-01-09T19:21:46.073Z,3.23
2019-01-09T19:24:14.670Z,3.22
2019-01-09T19:26:43.169Z,3.22
2019-01-09T19:29:13.104Z,3.19
2019-01-09T19:31:41.750Z,3.19
2019-01-09T19:34:10.561Z,3.17
2019-01-09T19:36:39.000Z,3.17
2019-01-09T19:39:09.207Z,3.16
2019-01-09T19:41:37.716Z,3.16
2019-01-09T19:44:07.038Z,3.17
2019-01-09T19:46:35.550Z,3.17
2019-01-09T19:49:05.810Z,3.13
2019-01-09T19:51:34.406Z,3.13
2019-01-09T19:54:03.113Z,3.15
2019-01-09T19:56:31.570Z,3.14
2019-01-09T19:59:00.012Z,3.15
2019-01-09T20:01:28.479Z,3.15
2019-01-09T20:03:56.919Z,3.17
2019-01-09T20:06:25.380Z,3.16
2019-01-09T20:08:53.837Z,3.17
2019-01-09T20:11:26.473Z,3.17
2019-01-09T20:13:52.521Z,3.17
2019-01-09T20:16:21.205Z,3.17
2019-01-09T20:18:50.036Z,3.15
2019-01-09T20:21:18.837Z,3.15
2019-01-09T20:23:47.411Z,3.13
2019-01-09T20:26:15.866Z,3.13
2019-01-09T20:28:44.316Z,3.13
2019-01-09T20:31:12.815Z,3.13
2019-01-09T20:33:41.229Z,3.08
2019-01-09T20:36:09.670Z,3.10
2019-01-09T20:38:38.163Z,3.10
2019-01-09T20:41:06.721Z,3.09
2019-01-09T20:43:35.163Z,3.06
2019-01-09T20:46:03.893Z,3.06
2019-01-09T20:48:32.340Z,3.06
2019-01-09T20:51:00.933Z,3.05
2019-01-09T20:53:29.442Z,3.05
2019-01-09T20:55:58.054Z,3.05
2019-01-09T20:58:26.626Z,3.05
2019-01-09T21:00:55.474Z,3.06
2019-01-09T21:03:23.930Z,3.05
2019-01-09T21:05:52.472Z,3.02
2019-01-09T21:08:21.100Z,3.03
2019-01-09T21:10:49.597Z,3.06
2019-01-09T21:13:18.127Z,3.03
2019-01-09T21:15:46.688Z,3.02
2019-01-09T21:18:15.104Z,2.99
2019-01-09T21:20:43.613Z,2.99
2019-01-09T21:23:12.077Z,2.99
2019-01-09T21:25:40.516Z,2.94
2019-01-09T21:28:09.045Z,2.94
2019-01-09T21:30:37.490Z,2.92
2019-01-09T21:33:06.226Z,2.89
2019-01-09T21:35:34.665Z,2.85
2019-01-09T21:38:03.132Z,2.81
2019-01-09T21:40:31.637Z,2.77
2019-01-09T21:43:00.170Z,2.75
2019-01-09T21:45:28.606Z,2.71
2019-01-09T21:47:57.141Z,2.69
2019-01-09T21:50:25.950Z,2.66
2019-01-09T21:52:54.579Z,2.64
2019-01-09T21:55:23.020Z,2.63
2019-01-09T21:57:51.652Z,2.60
2019-01-09T22:00:24.948Z,2.59
2019-01-09T22:02:53.555Z,2.57
2019-01-09T22:05:22.556Z,2.57
2019-01-09T22:07:51.165Z,2.54
2019-01-09T22:10:22.471Z,2.53
2019-01-09T22:12:51.070Z,2.52
2019-01-09T22:15:19.677Z,2.49
2019-01-09T22:17:48.116Z,2.48
2019-01-09T22:20:17.926Z,2.47
2019-01-09T22:22:46.790Z,2.48
2019-01-09T22:25:15.498Z,2.46
2019-01-09T22:27:44.048Z,2.43
2019-01-09T22:30:21.435Z,2.42
2019-01-09T22:32:49.950Z,2.40
2019-01-09T22:35:18.414Z,2.38
2019-01-09T22:37:46.862Z,2.37
2019-01-09T22:40:17.632Z,2.35
2019-01-09T22:42:46.344Z,2.35
2019-01-09T22:45:16.051Z,2.35
2019-01-09T22:47:44.562Z,2.34
2019-01-09T22:50:15.968Z,2.34
2019-01-09T22:52:44.415Z,2.33
2019-01-09T22:55:12.946Z,2.33
2019-01-09T22:57:41.395Z,2.34
2019-01-09T23:00:26.003Z,2.34
2019-01-09T23:02:54.781Z,2.35
2019-01-09T23:05:23.256Z,2.36
2019-01-09T23:07:51.689Z,2.38
2019-01-09T23:10:20.154Z,2.38
2019-01-09T23:12:48.598Z,2.39
2019-01-09T23:15:17.050Z,2.38
2019-01-09T23:17:45.562Z,2.40
2019-01-09T23:20:15.201Z,2.40
2019-01-09T23:22:43.708Z,2.40
2019-01-09T23:25:12.247Z,2.41
2019-01-09T23:27:40.690Z,2.41
2019-01-09T23:30:11.193Z,2.43
2019-01-09T23:32:41.345Z,2.42
2019-01-09T23:35:11.737Z,2.43
2019-01-09T23:37:40.182Z,2.40
2019-01-09T23:40:11.684Z,2.39
2019-01-09T23:42:40.185Z,2.37
2019-01-09T23:45:11.055Z,2.35
2019-01-09T23:47:39.500Z,2.31
2019-01-09T23:50:09.599Z,2.29
2019-01-09T23:52:38.037Z,2.29
2019-01-09T23:55:11.215Z,2.28
2019-01-09T23:57:39.665Z,2.28
